Time;durP1;ratioP1;P1;durP2;ratioP2;P2;SDS_P1;SDS_P2;PMS_P1;PMS_P2;Temp;Humidity;BMP_temperature;BMP_pressure;BME280_temperature;BME280_humidity;BME280_pressure;Samples;Min_cycle;Max_cycle;Signal;HPM_P1;HPM_P2
2022/04/26 03:43:45;;;;;;;1.33;0.80;;;13.50;64.20;;;;;;20567188;28;20046;-74
2022/04/26 03:53:48;;;;;;;1.15;0.80;;;13.40;64.00;;;;;;20584230;28;20039;-74
2022/04/26 04:03:49;;;;;;;2.03;1.40;;;13.40;64.60;;;;;;20549560;28;20038;-74
2022/04/26 04:13:49;;;;;;;1.25;0.80;;;13.40;64.00;;;;;;20549411;28;20041;-76
2022/04/26 04:23:50;;;;;;;2.15;1.42;;;13.40;63.90;;;;;;20532550;28;20115;-85
2022/04/26 04:33:50;;;;;;;2.20;1.20;;;13.40;63.90;;;;;;20517590;28;20465;-80
2022/04/26 04:43:51;;;;;;;1.38;0.95;;;13.40;64.50;;;;;;20546424;28;20362;-85
2022/04/26 04:53:52;;;;;;;3.10;2.05;;;13.40;63.80;;;;;;20507719;28;20528;-79
2022/04/26 05:03:52;;;;;;;3.67;2.10;;;13.20;63.00;;;;;;20555540;28;20045;-80
2022/04/26 05:13:53;;;;;;;3.50;2.23;;;13.20;62.30;;;;;;20583467;28;20031;-80
2022/04/26 05:34:13;;;;;;;2.88;1.80;;;13.20;62.20;;;;;;20552475;28;20047;-79
2022/04/26 05:44:14;;;;;;;2.28;1.42;;;13.20;62.40;;;;;;20564571;28;20062;-81
2022/04/26 05:54:14;;;;;;;6.32;1.90;;;13.30;62.60;;;;;;20514940;28;20042;-78
2022/04/26 06:04:16;;;;;;;3.78;1.85;;;13.30;62.80;;;;;;20545238;28;20039;-78
2022/04/26 06:14:17;;;;;;;2.58;1.58;;;13.30;63.00;;;;;;20525976;28;20042;-78
2022/04/26 06:24:18;;;;;;;2.42;1.55;;;13.30;63.30;;;;;;20570135;28;20039;-78
2022/04/26 06:34:18;;;;;;;3.40;1.33;;;13.40;63.60;;;;;;20556044;28;20035;-79
2022/04/26 06:44:19;;;;;;;2.70;1.38;;;13.40;63.80;;;;;;20574115;28;20045;-78
2022/04/26 06:54:19;;;;;;;4.68;1.77;;;13.40;64.00;;;;;;20541140;28;20031;-77
2022/04/26 07:04:20;;;;;;;3.15;1.45;;;13.50;64.20;;;;;;20540214;28;20049;-78
2022/04/26 07:14:21;;;;;;;1.98;1.05;;;13.50;64.30;;;;;;20555338;28;20034;-78
2022/04/26 07:24:21;;;;;;;1.98;1.10;;;13.50;64.40;;;;;;20553914;28;20137;-78
2022/04/26 07:34:22;;;;;;;3.38;1.65;;;13.50;64.50;;;;;;20538343;28;20047;-79
2022/04/26 07:44:23;;;;;;;1.70;1.20;;;13.50;64.60;;;;;;20521262;28;20061;-78
2022/04/26 07:54:23;;;;;;;2.33;1.70;;;13.50;64.70;;;;;;20554118;28;20302;-80
2022/04/26 08:04:24;;;;;;;2.00;1.45;;;13.60;64.90;;;;;;20542161;28;20105;-82
2022/04/26 08:14:24;;;;;;;2.60;1.30;;;13.60;64.90;;;;;;20541364;28;20121;-81
2022/04/26 08:34:44;;;;;;;1.98;1.42;;;13.60;65.60;;;;;;20559028;28;20039;-83
2022/04/26 08:44:45;;;;;;;2.42;1.30;;;13.60;65.10;;;;;;20540061;28;20041;-85
2022/04/26 08:54:45;;;;;;;2.15;1.33;;;13.60;65.10;;;;;;20552014;28;20118;-73
2022/04/26 09:04:50;;;;;;;2.05;1.35;;;13.70;65.10;;;;;;20546126;28;20043;-72
2022/04/26 09:14:50;;;;;;;1.63;1.00;;;13.70;65.10;;;;;;20530882;28;20034;-73
2022/04/26 09:25:04;;;;;;;2.25;1.08;;;13.70;65.00;;;;;;20514913;28;20038;-74
2022/04/26 09:35:17;;;;;;;1.95;1.05;;;13.80;65.20;;;;;;20545814;28;20039;-77
2022/04/26 09:45:18;;;;;;;1.73;1.05;;;13.70;65.10;;;;;;20525814;28;20038;-72
2022/04/26 09:55:20;;;;;;;1.58;1.08;;;13.80;65.20;;;;;;20468508;28;20118;-74
2022/04/26 10:05:21;;;;;;;2.30;1.30;;;13.70;65.20;;;;;;20535759;28;20037;-74
2022/04/26 10:15:21;;;;;;;2.63;1.10;;;13.80;65.20;;;;;;20576128;28;20035;-73
2022/04/26 10:25:23;;;;;;;1.30;0.93;;;13.80;65.30;;;;;;20542278;28;20043;-75
2022/04/26 10:35:23;;;;;;;1.30;0.90;;;13.80;65.30;;;;;;20554443;28;20382;-76
2022/04/26 10:45:32;;;;;;;2.42;1.13;;;13.80;65.30;;;;;;20589853;28;20050;-83
2022/04/26 10:55:33;;;;;;;1.40;0.98;;;13.80;65.40;;;;;;20560389;28;20441;-82
2022/04/26 11:05:34;;;;;;;2.45;0.98;;;13.80;65.40;;;;;;20523529;28;20035;-77
2022/04/26 11:15:34;;;;;;;2.45;0.85;;;13.90;65.40;;;;;;20532309;28;20392;-73
2022/04/26 11:36:14;;;;;;;1.63;1.10;;;13.90;65.40;;;;;;20421369;28;20058;-80
2022/04/26 11:46:14;;;;;;;1.45;0.90;;;13.90;65.40;;;;;;20545322;28;20162;-80
2022/04/26 11:56:17;;;;;;;1.50;0.90;;;13.90;65.40;;;;;;20568436;28;20037;-74
2022/04/26 12:06:36;;;;;;;1.50;0.88;;;13.90;65.40;;;;;;20550455;28;20035;-74
2022/04/26 12:16:40;;;;;;;0.93;0.85;;;13.90;65.40;;;;;;20550035;28;20050;-74
2022/04/26 12:26:59;;;;;;;1.67;0.85;;;14.00;65.50;;;;;;20516777;28;20043;-75
2022/04/26 12:37:07;;;;;;;1.90;0.90;;;14.00;65.40;;;;;;20558198;28;20054;-81
2022/04/26 12:58:08;;;;;;;2.10;1.20;;;14.00;65.40;;;;;;20554288;28;20131;-75
2022/04/26 13:08:09;;;;;;;0.95;0.80;;;14.00;65.50;;;;;;20550159;28;20049;-76
2022/04/26 13:18:14;;;;;;;2.15;1.15;;;14.00;65.50;;;;;;20548417;28;20043;-75
2022/04/26 13:28:14;;;;;;;3.03;1.05;;;14.00;65.50;;;;;;20535581;28;20039;-75
2022/04/26 13:38:15;;;;;;;3.15;1.48;;;14.00;65.40;;;;;;20532727;28;20121;-73
2022/04/26 13:48:15;;;;;;;2.10;1.15;;;14.00;65.30;;;;;;20563051;28;20093;-79
2022/04/26 13:58:16;;;;;;;1.55;1.10;;;14.00;65.20;;;;;;20548760;28;20141;-74
2022/04/26 14:08:17;;;;;;;3.05;1.02;;;14.10;65.20;;;;;;20524600;28;20062;-74
2022/04/26 14:28:36;;;;;;;1.60;1.08;;;14.10;65.20;;;;;;20581568;28;20039;-75
2022/04/26 14:38:37;;;;;;;2.65;1.15;;;14.10;65.10;;;;;;20564927;28;20045;-77
2022/04/26 14:48:38;;;;;;;2.80;1.40;;;14.20;65.00;;;;;;20562299;28;20038;-75
2022/04/26 14:58:39;;;;;;;1.50;1.00;;;14.20;64.90;;;;;;20578228;28;20046;-77
2022/04/26 15:18:59;;;;;;;1.20;1.00;;;14.20;65.00;;;;;;20560876;28;20035;-78
2022/04/26 15:28:59;;;;;;;2.50;1.10;;;14.20;65.00;;;;;;20543026;28;20054;-80
2022/04/26 15:39:00;;;;;;;1.87;1.20;;;14.30;65.00;;;;;;20524303;28;20448;-74
2022/04/26 15:49:02;;;;;;;1.42;1.10;;;14.30;65.00;;;;;;20537792;28;20304;-75
2022/04/26 15:59:03;;;;;;;1.48;1.05;;;14.30;65.00;;;;;;20557449;28;20512;-80
2022/04/26 16:29:44;;;;;;;4.53;1.10;;;14.30;65.30;;;;;;20571194;28;20045;-79
2022/04/26 16:39:44;;;;;;;4.43;2.03;;;14.30;65.30;;;;;;20566887;28;20521;-79
2022/04/26 16:49:46;;;;;;;4.47;1.23;;;14.30;65.30;;;;;;20548391;28;20047;-78
2022/04/26 16:59:47;;;;;;;10.65;1.52;;;14.20;65.30;;;;;;20563012;28;20030;-78
2022/04/26 17:09:47;;;;;;;3.45;1.25;;;14.20;65.30;;;;;;20576508;28;20101;-79
2022/04/26 17:19:48;;;;;;;1.77;1.00;;;14.20;65.30;;;;;;20528353;28;20046;-80
2022/04/26 17:29:49;;;;;;;1.90;1.08;;;14.20;65.30;;;;;;20527901;28;20097;-81
2022/04/26 17:39:50;;;;;;;2.88;1.38;;;14.20;65.30;;;;;;20530025;28;20042;-83
2022/04/26 17:49:50;;;;;;;2.50;1.10;;;14.20;65.30;;;;;;20536538;28;20043;-80
2022/04/26 17:59:51;;;;;;;2.65;1.00;;;14.10;65.20;;;;;;20528310;28;20039;-80
2022/04/26 18:09:52;;;;;;;2.47;1.10;;;14.20;65.30;;;;;;20577309;28;20054;-80
2022/04/26 18:19:53;;;;;;;1.27;0.90;;;14.20;65.30;;;;;;20536221;28;20095;-80
2022/04/26 18:29:53;;;;;;;0.90;0.70;;;14.10;65.20;;;;;;20542958;28;20426;-76
2022/04/26 18:39:54;;;;;;;1.73;0.90;;;14.10;65.20;;;;;;20571656;28;20162;-80
2022/04/26 18:49:55;;;;;;;2.10;0.93;;;14.10;65.20;;;;;;20456582;29;20047;-81
2022/04/26 18:59:56;;;;;;;1.42;0.95;;;14.20;65.30;;;;;;20542049;28;20034;-80
2022/04/26 19:20:15;;;;;;;1.60;0.90;;;14.10;65.20;;;;;;20543044;28;20030;-80
2022/04/26 19:30:16;;;;;;;1.20;1.00;;;14.10;65.30;;;;;;20552782;28;20473;-80
2022/04/26 19:40:17;;;;;;;2.35;1.00;;;14.10;65.30;;;;;;20569534;28;20046;-81
2022/04/26 20:00:36;;;;;;;1.20;0.80;;;14.10;65.40;;;;;;20584890;28;20042;-84
2022/04/26 20:10:37;;;;;;;2.38;1.20;;;14.10;65.40;;;;;;20567168;28;20054;-84
2022/04/26 20:20:38;;;;;;;2.25;1.40;;;14.00;65.40;;;;;;20563708;28;20043;-82
2022/04/26 20:30:38;;;;;;;1.30;0.90;;;14.00;65.50;;;;;;20549065;28;20043;-81
2022/04/26 20:40:40;;;;;;;2.00;1.27;;;14.00;65.50;;;;;;20547780;28;20567;-81
2022/04/26 20:50:41;;;;;;;2.38;1.20;;;14.10;65.60;;;;;;20577191;28;20042;-79
2022/04/26 21:00:42;;;;;;;1.87;1.07;;;14.00;65.50;;;;;;20563084;28;20093;-79
2022/04/26 21:10:43;;;;;;;2.35;1.40;;;14.00;65.50;;;;;;20531253;28;20330;-82
2022/04/26 21:20:43;;;;;;;2.17;1.20;;;14.00;65.60;;;;;;20530280;28;20122;-82
2022/04/26 21:30:44;;;;;;;2.63;1.10;;;14.00;65.60;;;;;;20561121;28;20336;-80
2022/04/26 21:40:44;;;;;;;2.08;1.33;;;14.00;65.60;;;;;;20530679;28;20034;-81
2022/04/26 22:01:04;;;;;;;1.60;0.88;;;14.00;65.50;;;;;;20563010;28;20026;-84
2022/04/26 22:11:08;;;;;;;1.60;1.00;;;14.00;65.60;;;;;;20560327;28;20042;-83
2022/04/26 22:21:09;;;;;;;1.58;0.80;;;14.00;65.50;;;;;;20559575;28;20035;-83
2022/04/26 22:31:09;;;;;;;1.35;0.90;;;14.00;65.50;;;;;;20574176;28;20193;-81
2022/04/26 22:41:10;;;;;;;1.55;1.10;;;14.00;65.50;;;;;;20557416;28;20062;-82
2022/04/26 22:51:11;;;;;;;1.48;0.90;;;14.00;65.50;;;;;;20555886;28;20500;-83
2022/04/26 23:01:11;;;;;;;1.60;1.02;;;14.00;65.40;;;;;;20568577;28;20050;-84
2022/04/26 23:11:13;;;;;;;1.38;0.95;;;14.00;65.30;;;;;;20556007;28;20042;-82
2022/04/26 23:21:13;;;;;;;2.33;1.27;;;13.90;65.10;;;;;;20570606;28;20035;-84
2022/04/26 23:31:14;;;;;;;1.92;1.10;;;13.90;65.00;;;;;;20554691;28;20109;-82
2022/04/26 23:41:14;;;;;;;3.65;1.63;;;13.90;64.80;;;;;;20553609;28;20454;-82
